sensor_id;sensor_type;location;lat;lon;timestamp;P1;durP1;ratioP1;P2;durP2;ratioP2
75926;SDS011;64605;48.296;16.416;2022-11-02T00:04:11;27.92;;;22.02;;
75926;SDS011;64605;48.296;16.416;2022-11-02T00:06:37;30.58;;;22.67;;
75926;SDS011;64605;48.296;16.416;2022-11-02T00:09:03;27.88;;;22.00;;
75926;SDS011;64605;48.296;16.416;2022-11-02T00:11:29;26.15;;;21.58;;
75926;SDS011;64605;48.296;16.416;2022-11-02T00:13:55;27.25;;;22.42;;
75926;SDS011;64605;48.296;16.416;2022-11-02T00:16:21;30.67;;;23.55;;
75926;SDS011;64605;48.296;16.416;2022-11-02T00:18:48;29.35;;;22.05;;
75926;SDS011;64605;48.296;16.416;2022-11-02T00:21:17;26.52;;;22.02;;
75926;SDS011;64605;48.296;16.416;2022-11-02T00:23:44;30.73;;;23.35;;
75926;SDS011;64605;48.296;16.416;2022-11-02T00:26:10;25.10;;;20.92;;
75926;SDS011;64605;48.296;16.416;2022-11-02T00:28:36;28.30;;;22.98;;
75926;SDS011;64605;48.296;16.416;2022-11-02T00:31:02;29.30;;;22.77;;
75926;SDS011;64605;48.296;16.416;2022-11-02T00:33:27;26.80;;;21.98;;
75926;SDS011;64605;48.296;16.416;2022-11-02T00:35:53;27.58;;;22.35;;
75926;SDS011;64605;48.296;16.416;2022-11-02T00:38:20;32.63;;;24.77;;
75926;SDS011;64605;48.296;16.416;2022-11-02T00:40:45;28.92;;;21.08;;
75926;SDS011;64605;48.296;16.416;2022-11-02T00:43:11;27.33;;;21.23;;
75926;SDS011;64605;48.296;16.416;2022-11-02T00:45:36;24.13;;;20.40;;
75926;SDS011;64605;48.296;16.416;2022-11-02T00:48:02;29.33;;;20.70;;
75926;SDS011;64605;48.296;16.416;2022-11-02T00:50:28;27.70;;;22.60;;
75926;SDS011;64605;48.296;16.416;2022-11-02T00:52:54;26.80;;;20.77;;
75926;SDS011;64605;48.296;16.416;2022-11-02T00:55:20;26.30;;;21.63;;
75926;SDS011;64605;48.296;16.416;2022-11-02T00:57:46;25.73;;;20.65;;
75926;SDS011;64605;48.296;16.416;2022-11-02T01:00:12;26.52;;;20.83;;
75926;SDS011;64605;48.296;16.416;2022-11-02T01:02:39;28.88;;;20.98;;
75926;SDS011;64605;48.296;16.416;2022-11-02T01:05:05;30.63;;;22.58;;
75926;SDS011;64605;48.296;16.416;2022-11-02T01:07:32;27.27;;;21.58;;
75926;SDS011;64605;48.296;16.416;2022-11-02T01:09:57;23.98;;;20.25;;
75926;SDS011;64605;48.296;16.416;2022-11-02T01:12:23;25.20;;;20.63;;
75926;SDS011;64605;48.296;16.416;2022-11-02T01:14:49;29.85;;;23.23;;
75926;SDS011;64605;48.296;16.416;2022-11-02T01:17:15;32.28;;;22.95;;
75926;SDS011;64605;48.296;16.416;2022-11-02T01:19:42;25.15;;;20.52;;
75926;SDS011;64605;48.296;16.416;2022-11-02T01:22:07;28.27;;;21.90;;
75926;SDS011;64605;48.296;16.416;2022-11-02T01:24:33;28.08;;;22.30;;
75926;SDS011;64605;48.296;16.416;2022-11-02T01:26:59;27.92;;;21.77;;
75926;SDS011;64605;48.296;16.416;2022-11-02T01:29:25;30.02;;;22.92;;
75926;SDS011;64605;48.296;16.416;2022-11-02T01:31:50;27.00;;;22.20;;
75926;SDS011;64605;48.296;16.416;2022-11-02T01:34:17;26.92;;;20.45;;
75926;SDS011;64605;48.296;16.416;2022-11-02T01:36:44;27.08;;;21.63;;
75926;SDS011;64605;48.296;16.416;2022-11-02T01:42:34;25.85;;;21.75;;
75926;SDS011;64605;48.296;16.416;2022-11-02T01:45:00;28.42;;;22.13;;
75926;SDS011;64605;48.296;16.416;2022-11-02T01:47:30;29.05;;;21.27;;
75926;SDS011;64605;48.296;16.416;2022-11-02T01:50:03;25.25;;;21.25;;
75926;SDS011;64605;48.296;16.416;2022-11-02T01:52:34;26.88;;;21.92;;
75926;SDS011;64605;48.296;16.416;2022-11-02T01:55:43;23.90;;;20.15;;
75926;SDS011;64605;48.296;16.416;2022-11-02T01:57:57;24.25;;;20.27;;
75926;SDS011;64605;48.296;16.416;2022-11-02T02:00:25;29.27;;;21.02;;
75926;SDS011;64605;48.296;16.416;2022-11-02T02:03:03;28.15;;;21.00;;
75926;SDS011;64605;48.296;16.416;2022-11-02T02:05:55;25.67;;;20.92;;
75926;SDS011;64605;48.296;16.416;2022-11-02T02:08:23;24.40;;;20.35;;
75926;SDS011;64605;48.296;16.416;2022-11-02T02:10:53;26.77;;;20.27;;
75926;SDS011;64605;48.296;16.416;2022-11-02T02:13:20;29.20;;;20.10;;
75926;SDS011;64605;48.296;16.416;2022-11-02T02:15:49;24.00;;;20.63;;
75926;SDS011;64605;48.296;16.416;2022-11-02T02:21:48;28.33;;;21.60;;
75926;SDS011;64605;48.296;16.416;2022-11-02T02:26:51;26.85;;;22.08;;
75926;SDS011;64605;48.296;16.416;2022-11-02T02:29:27;25.25;;;20.10;;
75926;SDS011;64605;48.296;16.416;2022-11-02T02:37:06;40.08;;;24.55;;
75926;SDS011;64605;48.296;16.416;2022-11-02T02:39:54;32.00;;;26.08;;
75926;SDS011;64605;48.296;16.416;2022-11-02T02:42:43;32.90;;;24.45;;
75926;SDS011;64605;48.296;16.416;2022-11-02T02:45:15;33.75;;;23.17;;
75926;SDS011;64605;48.296;16.416;2022-11-02T02:48:11;28.15;;;22.83;;
75926;SDS011;64605;48.296;16.416;2022-11-02T02:50:47;28.17;;;20.90;;
75926;SDS011;64605;48.296;16.416;2022-11-02T02:53:29;33.25;;;23.75;;
75926;SDS011;64605;48.296;16.416;2022-11-02T02:56:00;33.13;;;25.20;;
75926;SDS011;64605;48.296;16.416;2022-11-02T02:58:29;32.80;;;23.38;;
75926;SDS011;64605;48.296;16.416;2022-11-02T03:01:12;33.35;;;24.35;;
75926;SDS011;64605;48.296;16.416;2022-11-02T03:03:39;34.15;;;26.27;;
75926;SDS011;64605;48.296;16.416;2022-11-02T03:11:40;26.95;;;21.30;;
75926;SDS011;64605;48.296;16.416;2022-11-02T03:17:02;29.88;;;23.70;;
75926;SDS011;64605;48.296;16.416;2022-11-02T03:22:28;34.08;;;25.50;;
75926;SDS011;64605;48.296;16.416;2022-11-02T03:24:58;29.88;;;23.05;;
75926;SDS011;64605;48.296;16.416;2022-11-02T03:28:08;26.35;;;22.00;;
75926;SDS011;64605;48.296;16.416;2022-11-02T03:30:44;30.85;;;21.55;;
75926;SDS011;64605;48.296;16.416;2022-11-02T03:33:19;30.33;;;22.15;;
75926;SDS011;64605;48.296;16.416;2022-11-02T03:35:51;29.92;;;23.27;;
75926;SDS011;64605;48.296;16.416;2022-11-02T03:38:24;28.20;;;21.42;;
75926;SDS011;64605;48.296;16.416;2022-11-02T03:40:56;30.13;;;22.42;;
75926;SDS011;64605;48.296;16.416;2022-11-02T03:43:25;29.38;;;23.55;;
75926;SDS011;64605;48.296;16.416;2022-11-02T03:45:54;30.27;;;23.65;;
75926;SDS011;64605;48.296;16.416;2022-11-02T03:48:23;27.33;;;22.80;;
75926;SDS011;64605;48.296;16.416;2022-11-02T03:50:52;27.58;;;21.67;;
75926;SDS011;64605;48.296;16.416;2022-11-02T03:53:21;31.63;;;24.00;;
75926;SDS011;64605;48.296;16.416;2022-11-02T03:55:53;30.35;;;22.02;;
75926;SDS011;64605;48.296;16.416;2022-11-02T03:58:23;24.63;;;20.08;;
75926;SDS011;64605;48.296;16.416;2022-11-02T04:00:50;27.23;;;21.73;;
75926;SDS011;64605;48.296;16.416;2022-11-02T04:03:19;29.77;;;22.83;;
75926;SDS011;64605;48.296;16.416;2022-11-02T04:05:47;26.90;;;21.67;;
75926;SDS011;64605;48.296;16.416;2022-11-02T04:08:14;26.88;;;21.80;;
75926;SDS011;64605;48.296;16.416;2022-11-02T04:10:45;31.48;;;22.65;;
75926;SDS011;64605;48.296;16.416;2022-11-02T04:13:30;31.70;;;22.77;;
75926;SDS011;64605;48.296;16.416;2022-11-02T04:16:15;29.50;;;21.45;;
75926;SDS011;64605;48.296;16.416;2022-11-02T04:18:41;31.25;;;22.80;;
75926;SDS011;64605;48.296;16.416;2022-11-02T04:21:26;27.90;;;21.70;;
75926;SDS011;64605;48.296;16.416;2022-11-02T04:23:52;23.48;;;19.73;;
75926;SDS011;64605;48.296;16.416;2022-11-02T04:26:36;29.42;;;21.77;;
75926;SDS011;64605;48.296;16.416;2022-11-02T04:29:02;34.25;;;23.17;;
75926;SDS011;64605;48.296;16.416;2022-11-02T04:31:28;31.85;;;22.30;;
75926;SDS011;64605;48.296;16.416;2022-11-02T04:33:54;25.83;;;20.15;;
75926;SDS011;64605;48.296;16.416;2022-11-02T04:36:22;26.88;;;22.48;;
75926;SDS011;64605;48.296;16.416;2022-11-02T04:38:48;28.23;;;22.55;;
75926;SDS011;64605;48.296;16.416;2022-11-02T04:41:14;28.52;;;22.45;;
75926;SDS011;64605;48.296;16.416;2022-11-02T04:44:03;27.98;;;20.90;;
75926;SDS011;64605;48.296;16.416;2022-11-02T04:46:30;30.40;;;23.42;;
75926;SDS011;64605;48.296;16.416;2022-11-02T04:48:57;28.52;;;21.40;;
75926;SDS011;64605;48.296;16.416;2022-11-02T04:51:24;32.15;;;22.20;;
75926;SDS011;64605;48.296;16.416;2022-11-02T04:53:51;30.48;;;22.92;;
75926;SDS011;64605;48.296;16.416;2022-11-02T04:56:18;31.45;;;23.60;;
75926;SDS011;64605;48.296;16.416;2022-11-02T04:58:48;31.27;;;22.52;;
75926;SDS011;64605;48.296;16.416;2022-11-02T05:03:48;27.25;;;19.98;;
75926;SDS011;64605;48.296;16.416;2022-11-02T05:06:17;29.38;;;22.55;;
75926;SDS011;64605;48.296;16.416;2022-11-02T05:08:44;25.27;;;20.17;;
75926;SDS011;64605;48.296;16.416;2022-11-02T05:11:10;28.88;;;22.17;;
75926;SDS011;64605;48.296;16.416;2022-11-02T05:13:36;30.35;;;22.42;;
75926;SDS011;64605;48.296;16.416;2022-11-02T05:16:03;26.77;;;21.17;;
75926;SDS011;64605;48.296;16.416;2022-11-02T05:18:29;27.83;;;21.52;;
75926;SDS011;64605;48.296;16.416;2022-11-02T05:20:56;25.25;;;20.80;;
75926;SDS011;64605;48.296;16.416;2022-11-02T05:23:23;29.38;;;21.42;;
75926;SDS011;64605;48.296;16.416;2022-11-02T05:25:53;25.52;;;20.10;;
75926;SDS011;64605;48.296;16.416;2022-11-02T05:28:24;29.23;;;22.55;;
75926;SDS011;64605;48.296;16.416;2022-11-02T05:30:50;30.77;;;22.25;;
75926;SDS011;64605;48.296;16.416;2022-11-02T05:33:16;28.63;;;21.55;;
75926;SDS011;64605;48.296;16.416;2022-11-02T05:35:42;30.00;;;23.20;;
75926;SDS011;64605;48.296;16.416;2022-11-02T05:38:08;32.08;;;23.17;;
75926;SDS011;64605;48.296;16.416;2022-11-02T05:40:34;24.88;;;20.67;;
75926;SDS011;64605;48.296;16.416;2022-11-02T05:43:04;33.65;;;23.98;;
75926;SDS011;64605;48.296;16.416;2022-11-02T05:45:31;29.13;;;22.55;;
75926;SDS011;64605;48.296;16.416;2022-11-02T05:47:58;26.92;;;20.55;;
75926;SDS011;64605;48.296;16.416;2022-11-02T05:50:25;25.00;;;20.70;;
75926;SDS011;64605;48.296;16.416;2022-11-02T05:52:51;27.60;;;21.42;;
75926;SDS011;64605;48.296;16.416;2022-11-02T05:55:17;29.67;;;22.23;;
75926;SDS011;64605;48.296;16.416;2022-11-02T05:57:43;24.67;;;20.27;;
75926;SDS011;64605;48.296;16.416;2022-11-02T06:00:14;30.27;;;21.13;;
75926;SDS011;64605;48.296;16.416;2022-11-02T06:02:40;24.13;;;20.20;;
75926;SDS011;64605;48.296;16.416;2022-11-02T06:05:05;28.08;;;21.30;;
75926;SDS011;64605;48.296;16.416;2022-11-02T06:07:31;25.88;;;20.10;;
75926;SDS011;64605;48.296;16.416;2022-11-02T06:09:57;29.67;;;20.17;;
75926;SDS011;64605;48.296;16.416;2022-11-02T06:12:22;27.15;;;20.88;;
75926;SDS011;64605;48.296;16.416;2022-11-02T06:14:48;25.38;;;19.70;;
75926;SDS011;64605;48.296;16.416;2022-11-02T06:17:14;27.13;;;20.60;;
75926;SDS011;64605;48.296;16.416;2022-11-02T06:19:39;35.80;;;23.08;;
75926;SDS011;64605;48.296;16.416;2022-11-02T06:22:05;30.15;;;22.17;;
75926;SDS011;64605;48.296;16.416;2022-11-02T06:24:30;32.67;;;23.73;;
75926;SDS011;64605;48.296;16.416;2022-11-02T06:26:56;26.42;;;23.00;;
75926;SDS011;64605;48.296;16.416;2022-11-02T06:29:22;31.77;;;22.63;;
75926;SDS011;64605;48.296;16.416;2022-11-02T06:31:47;27.30;;;22.10;;
75926;SDS011;64605;48.296;16.416;2022-11-02T06:34:13;28.90;;;21.30;;
75926;SDS011;64605;48.296;16.416;2022-11-02T06:36:38;28.92;;;20.15;;
75926;SDS011;64605;48.296;16.416;2022-11-02T06:39:04;27.05;;;21.45;;
75926;SDS011;64605;48.296;16.416;2022-11-02T06:41:30;33.03;;;22.88;;
75926;SDS011;64605;48.296;16.416;2022-11-02T06:43:55;31.42;;;24.95;;
75926;SDS011;64605;48.296;16.416;2022-11-02T06:46:21;33.08;;;25.08;;
75926;SDS011;64605;48.296;16.416;2022-11-02T06:48:46;36.63;;;24.10;;
75926;SDS011;64605;48.296;16.416;2022-11-02T06:51:12;30.38;;;23.60;;
75926;SDS011;64605;48.296;16.416;2022-11-02T06:53:38;31.30;;;22.52;;
75926;SDS011;64605;48.296;16.416;2022-11-02T06:56:04;29.45;;;22.85;;
75926;SDS011;64605;48.296;16.416;2022-11-02T06:58:30;32.80;;;23.75;;
75926;SDS011;64605;48.296;16.416;2022-11-02T07:00:57;29.48;;;24.45;;
75926;SDS011;64605;48.296;16.416;2022-11-02T07:03:28;34.38;;;25.45;;
75926;SDS011;64605;48.296;16.416;2022-11-02T07:05:54;31.73;;;24.42;;
75926;SDS011;64605;48.296;16.416;2022-11-02T07:08:20;30.85;;;23.48;;
75926;SDS011;64605;48.296;16.416;2022-11-02T07:10:46;27.52;;;22.70;;
75926;SDS011;64605;48.296;16.416;2022-11-02T07:13:12;28.05;;;22.50;;
75926;SDS011;64605;48.296;16.416;2022-11-02T07:15:38;26.67;;;19.05;;
75926;SDS011;64605;48.296;16.416;2022-11-02T07:18:04;24.13;;;19.70;;
75926;SDS011;64605;48.296;16.416;2022-11-02T07:20:30;26.38;;;20.08;;
75926;SDS011;64605;48.296;16.416;2022-11-02T07:22:58;23.67;;;18.80;;
75926;SDS011;64605;48.296;16.416;2022-11-02T07:25:25;20.90;;;17.23;;
75926;SDS011;64605;48.296;16.416;2022-11-02T07:27:52;23.05;;;17.77;;
75926;SDS011;64605;48.296;16.416;2022-11-02T07:30:19;23.00;;;18.77;;
75926;SDS011;64605;48.296;16.416;2022-11-02T07:32:45;21.15;;;17.42;;
75926;SDS011;64605;48.296;16.416;2022-11-02T07:35:11;23.48;;;17.67;;
75926;SDS011;64605;48.296;16.416;2022-11-02T07:37:38;24.65;;;17.98;;
75926;SDS011;64605;48.296;16.416;2022-11-02T07:40:04;23.42;;;18.33;;
75926;SDS011;64605;48.296;16.416;2022-11-02T07:42:31;21.95;;;18.35;;
75926;SDS011;64605;48.296;16.416;2022-11-02T07:44:57;23.05;;;20.02;;
75926;SDS011;64605;48.296;16.416;2022-11-02T07:47:23;24.58;;;19.88;;
75926;SDS011;64605;48.296;16.416;2022-11-02T07:49:49;24.75;;;19.63;;
75926;SDS011;64605;48.296;16.416;2022-11-02T07:52:14;25.05;;;19.83;;
75926;SDS011;64605;48.296;16.416;2022-11-02T07:54:40;29.48;;;19.90;;
75926;SDS011;64605;48.296;16.416;2022-11-02T07:57:05;22.92;;;19.08;;
75926;SDS011;64605;48.296;16.416;2022-11-02T07:59:31;25.02;;;19.80;;
75926;SDS011;64605;48.296;16.416;2022-11-02T08:01:57;22.58;;;18.40;;
75926;SDS011;64605;48.296;16.416;2022-11-02T08:04:22;24.27;;;18.80;;
75926;SDS011;64605;48.296;16.416;2022-11-02T08:06:48;25.70;;;17.52;;
75926;SDS011;64605;48.296;16.416;2022-11-02T08:09:14;23.60;;;18.00;;
75926;SDS011;64605;48.296;16.416;2022-11-02T08:11:39;27.58;;;18.67;;
75926;SDS011;64605;48.296;16.416;2022-11-02T08:14:05;24.65;;;18.60;;
75926;SDS011;64605;48.296;16.416;2022-11-02T08:16:31;20.38;;;16.83;;
75926;SDS011;64605;48.296;16.416;2022-11-02T08:18:57;22.00;;;18.10;;
75926;SDS011;64605;48.296;16.416;2022-11-02T08:21:24;23.45;;;17.88;;
75926;SDS011;64605;48.296;16.416;2022-11-02T08:23:50;21.50;;;16.35;;
75926;SDS011;64605;48.296;16.416;2022-11-02T08:26:16;21.35;;;17.52;;
75926;SDS011;64605;48.296;16.416;2022-11-02T08:28:42;27.08;;;17.10;;
75926;SDS011;64605;48.296;16.416;2022-11-02T08:31:13;23.67;;;16.60;;
75926;SDS011;64605;48.296;16.416;2022-11-02T08:33:40;23.10;;;16.27;;
75926;SDS011;64605;48.296;16.416;2022-11-02T08:36:07;18.88;;;16.55;;
75926;SDS011;64605;48.296;16.416;2022-11-02T08:38:33;20.45;;;15.65;;
75926;SDS011;64605;48.296;16.416;2022-11-02T08:40:58;18.40;;;14.23;;
75926;SDS011;64605;48.296;16.416;2022-11-02T08:43:26;21.10;;;13.38;;
75926;SDS011;64605;48.296;16.416;2022-11-02T08:45:52;19.98;;;15.38;;
75926;SDS011;64605;48.296;16.416;2022-11-02T08:48:23;16.37;;;13.53;;
75926;SDS011;64605;48.296;16.416;2022-11-02T08:50:49;17.77;;;15.82;;
75926;SDS011;64605;48.296;16.416;2022-11-02T08:53:15;18.17;;;14.45;;
75926;SDS011;64605;48.296;16.416;2022-11-02T08:55:41;15.85;;;14.18;;
75926;SDS011;64605;48.296;16.416;2022-11-02T08:58:07;17.98;;;13.45;;
75926;SDS011;64605;48.296;16.416;2022-11-02T09:00:33;20.48;;;14.27;;
75926;SDS011;64605;48.296;16.416;2022-11-02T09:03:02;15.48;;;12.00;;
75926;SDS011;64605;48.296;16.416;2022-11-02T09:05:28;15.52;;;10.30;;
75926;SDS011;64605;48.296;16.416;2022-11-02T09:08:11;14.90;;;10.00;;
75926;SDS011;64605;48.296;16.416;2022-11-02T09:10:41;34.28;;;23.60;;
75926;SDS011;64605;48.296;16.416;2022-11-02T09:13:09;13.15;;;9.60;;
75926;SDS011;64605;48.296;16.416;2022-11-02T09:15:36;11.68;;;8.82;;
75926;SDS011;64605;48.296;16.416;2022-11-02T09:18:03;10.45;;;7.95;;
75926;SDS011;64605;48.296;16.416;2022-11-02T09:20:30;10.85;;;8.30;;
75926;SDS011;64605;48.296;16.416;2022-11-02T09:22:56;10.15;;;7.90;;
75926;SDS011;64605;48.296;16.416;2022-11-02T09:25:22;9.75;;;7.38;;
75926;SDS011;64605;48.296;16.416;2022-11-02T09:27:51;10.20;;;5.97;;
75926;SDS011;64605;48.296;16.416;2022-11-02T09:30:18;10.05;;;6.30;;
75926;SDS011;64605;48.296;16.416;2022-11-02T09:32:51;10.00;;;5.90;;
75926;SDS011;64605;48.296;16.416;2022-11-02T09:35:18;7.03;;;4.13;;
75926;SDS011;64605;48.296;16.416;2022-11-02T09:37:44;8.45;;;3.97;;
75926;SDS011;64605;48.296;16.416;2022-11-02T09:40:10;8.73;;;4.00;;
75926;SDS011;64605;48.296;16.416;2022-11-02T09:45:31;7.88;;;4.40;;
75926;SDS011;64605;48.296;16.416;2022-11-02T09:48:01;8.63;;;4.90;;
75926;SDS011;64605;48.296;16.416;2022-11-02T09:50:38;9.88;;;4.97;;
75926;SDS011;64605;48.296;16.416;2022-11-02T09:53:06;9.95;;;5.60;;
75926;SDS011;64605;48.296;16.416;2022-11-02T09:55:35;8.45;;;5.28;;
75926;SDS011;64605;48.296;16.416;2022-11-02T09:58:06;13.02;;;5.07;;
75926;SDS011;64605;48.296;16.416;2022-11-02T10:00:40;8.35;;;5.68;;
75926;SDS011;64605;48.296;16.416;2022-11-02T10:03:10;12.00;;;7.30;;
75926;SDS011;64605;48.296;16.416;2022-11-02T10:05:55;10.25;;;6.68;;
75926;SDS011;64605;48.296;16.416;2022-11-02T10:11:06;14.48;;;10.68;;
75926;SDS011;64605;48.296;16.416;2022-11-02T10:18:43;8.07;;;4.20;;
75926;SDS011;64605;48.296;16.416;2022-11-02T10:21:28;6.50;;;3.97;;
75926;SDS011;64605;48.296;16.416;2022-11-02T10:26:45;8.15;;;3.85;;
75926;SDS011;64605;48.296;16.416;2022-11-02T10:29:16;6.05;;;3.42;;
75926;SDS011;64605;48.296;16.416;2022-11-02T10:31:47;6.85;;;3.63;;
75926;SDS011;64605;48.296;16.416;2022-11-02T10:34:19;5.85;;;2.90;;
75926;SDS011;64605;48.296;16.416;2022-11-02T10:39:40;9.70;;;3.40;;
75926;SDS011;64605;48.296;16.416;2022-11-02T10:51:09;4.85;;;2.95;;
75926;SDS011;64605;48.296;16.416;2022-11-02T10:53:39;5.32;;;2.88;;
75926;SDS011;64605;48.296;16.416;2022-11-02T10:56:10;7.47;;;2.80;;
75926;SDS011;64605;48.296;16.416;2022-11-02T11:01:46;4.97;;;2.90;;
75926;SDS011;64605;48.296;16.416;2022-11-02T11:04:32;5.35;;;3.25;;
75926;SDS011;64605;48.296;16.416;2022-11-02T11:07:31;5.78;;;2.90;;
75926;SDS011;64605;48.296;16.416;2022-11-02T11:12:25;8.00;;;3.28;;
75926;SDS011;64605;48.296;16.416;2022-11-02T11:14:57;6.25;;;3.40;;
75926;SDS011;64605;48.296;16.416;2022-11-02T11:17:37;5.40;;;2.65;;
75926;SDS011;64605;48.296;16.416;2022-11-02T11:20:23;4.95;;;3.50;;
75926;SDS011;64605;48.296;16.416;2022-11-02T11:23:19;8.70;;;4.05;;
75926;SDS011;64605;48.296;16.416;2022-11-02T11:25:54;5.43;;;3.80;;
75926;SDS011;64605;48.296;16.416;2022-11-02T11:31:15;7.40;;;3.67;;
75926;SDS011;64605;48.296;16.416;2022-11-02T11:33:46;7.82;;;4.00;;
75926;SDS011;64605;48.296;16.416;2022-11-02T11:36:25;8.32;;;4.00;;
75926;SDS011;64605;48.296;16.416;2022-11-02T11:39:04;6.50;;;3.75;;
75926;SDS011;64605;48.296;16.416;2022-11-02T11:41:40;6.00;;;3.78;;
75926;SDS011;64605;48.296;16.416;2022-11-02T11:44:06;7.20;;;4.15;;
75926;SDS011;64605;48.296;16.416;2022-11-02T11:46:44;7.70;;;4.03;;
75926;SDS011;64605;48.296;16.416;2022-11-02T11:49:17;6.38;;;4.30;;
75926;SDS011;64605;48.296;16.416;2022-11-02T11:51:46;8.30;;;4.30;;
75926;SDS011;64605;48.296;16.416;2022-11-02T11:57:15;9.48;;;4.18;;
75926;SDS011;64605;48.296;16.416;2022-11-02T11:59:55;7.70;;;4.18;;
75926;SDS011;64605;48.296;16.416;2022-11-02T12:02:25;6.22;;;4.07;;
75926;SDS011;64605;48.296;16.416;2022-11-02T12:04:51;8.77;;;5.00;;
75926;SDS011;64605;48.296;16.416;2022-11-02T12:17:55;7.50;;;4.43;;
75926;SDS011;64605;48.296;16.416;2022-11-02T12:26:12;8.95;;;4.50;;
75926;SDS011;64605;48.296;16.416;2022-11-02T12:39:45;8.80;;;3.88;;
75926;SDS011;64605;48.296;16.416;2022-11-02T12:50:02;7.22;;;3.65;;
75926;SDS011;64605;48.296;16.416;2022-11-02T12:55:35;4.65;;;3.70;;
75926;SDS011;64605;48.296;16.416;2022-11-02T12:58:11;6.28;;;3.47;;
75926;SDS011;64605;48.296;16.416;2022-11-02T13:00:44;4.70;;;3.47;;
75926;SDS011;64605;48.296;16.416;2022-11-02T13:03:18;5.35;;;3.28;;
75926;SDS011;64605;48.296;16.416;2022-11-02T13:05:58;7.47;;;3.47;;
75926;SDS011;64605;48.296;16.416;2022-11-02T13:11:54;6.10;;;3.75;;
75926;SDS011;64605;48.296;16.416;2022-11-02T13:14:11;7.75;;;3.30;;
75926;SDS011;64605;48.296;16.416;2022-11-02T13:16:49;6.05;;;4.15;;
75926;SDS011;64605;48.296;16.416;2022-11-02T13:19:32;7.90;;;3.80;;
75926;SDS011;64605;48.296;16.416;2022-11-02T13:22:02;8.25;;;3.92;;
75926;SDS011;64605;48.296;16.416;2022-11-02T13:24:30;7.93;;;4.50;;
75926;SDS011;64605;48.296;16.416;2022-11-02T13:27:01;7.93;;;3.88;;
75926;SDS011;64605;48.296;16.416;2022-11-02T13:29:40;8.35;;;3.85;;
75926;SDS011;64605;48.296;16.416;2022-11-02T13:32:10;6.90;;;3.53;;
75926;SDS011;64605;48.296;16.416;2022-11-02T13:34:49;7.63;;;3.40;;
75926;SDS011;64605;48.296;16.416;2022-11-02T13:37:27;9.05;;;3.80;;
75926;SDS011;64605;48.296;16.416;2022-11-02T13:40:04;8.70;;;3.25;;
75926;SDS011;64605;48.296;16.416;2022-11-02T13:42:44;9.02;;;3.45;;
75926;SDS011;64605;48.296;16.416;2022-11-02T13:45:38;5.90;;;3.05;;
75926;SDS011;64605;48.296;16.416;2022-11-02T13:48:46;6.35;;;3.38;;
75926;SDS011;64605;48.296;16.416;2022-11-02T13:51:16;11.65;;;5.70;;
75926;SDS011;64605;48.296;16.416;2022-11-02T13:53:54;5.40;;;3.22;;
75926;SDS011;64605;48.296;16.416;2022-11-02T13:56:27;7.03;;;4.13;;
75926;SDS011;64605;48.296;16.416;2022-11-02T13:58:57;6.68;;;3.53;;
75926;SDS011;64605;48.296;16.416;2022-11-02T14:01:57;12.73;;;3.80;;
75926;SDS011;64605;48.296;16.416;2022-11-02T14:04:26;5.80;;;3.38;;
75926;SDS011;64605;48.296;16.416;2022-11-02T14:07:01;8.55;;;4.05;;
75926;SDS011;64605;48.296;16.416;2022-11-02T14:09:48;7.10;;;3.33;;
75926;SDS011;64605;48.296;16.416;2022-11-02T14:15:34;11.18;;;3.42;;
75926;SDS011;64605;48.296;16.416;2022-11-02T14:37:02;8.25;;;3.72;;
75926;SDS011;64605;48.296;16.416;2022-11-02T14:47:54;12.23;;;4.03;;
75926;SDS011;64605;48.296;16.416;2022-11-02T14:50:23;6.90;;;3.55;;
75926;SDS011;64605;48.296;16.416;2022-11-02T14:53:08;13.00;;;3.60;;
75926;SDS011;64605;48.296;16.416;2022-11-02T14:55:51;9.32;;;4.22;;
75926;SDS011;64605;48.296;16.416;2022-11-02T14:58:19;7.88;;;4.13;;
75926;SDS011;64605;48.296;16.416;2022-11-02T15:08:31;6.78;;;3.95;;
75926;SDS011;64605;48.296;16.416;2022-11-02T15:11:41;9.82;;;4.60;;
75926;SDS011;64605;48.296;16.416;2022-11-02T15:14:29;8.77;;;4.55;;
75926;SDS011;64605;48.296;16.416;2022-11-02T15:16:54;9.48;;;4.90;;
75926;SDS011;64605;48.296;16.416;2022-11-02T15:19:39;8.32;;;5.40;;
75926;SDS011;64605;48.296;16.416;2022-11-02T15:27:36;9.35;;;5.38;;
75926;SDS011;64605;48.296;16.416;2022-11-02T15:30:12;10.52;;;5.53;;
75926;SDS011;64605;48.296;16.416;2022-11-02T15:32:50;10.32;;;5.95;;
75926;SDS011;64605;48.296;16.416;2022-11-02T15:35:19;12.05;;;5.55;;
75926;SDS011;64605;48.296;16.416;2022-11-02T15:37:56;10.02;;;5.50;;
75926;SDS011;64605;48.296;16.416;2022-11-02T15:40:28;8.35;;;5.93;;
75926;SDS011;64605;48.296;16.416;2022-11-02T15:43:06;10.63;;;6.13;;
75926;SDS011;64605;48.296;16.416;2022-11-02T15:48:35;10.82;;;6.22;;
75926;SDS011;64605;48.296;16.416;2022-11-02T15:51:19;11.73;;;7.38;;
75926;SDS011;64605;48.296;16.416;2022-11-02T15:56:48;16.95;;;9.45;;
75926;SDS011;64605;48.296;16.416;2022-11-02T16:04:55;17.35;;;12.77;;
75926;SDS011;64605;48.296;16.416;2022-11-02T16:07:22;15.90;;;11.18;;
75926;SDS011;64605;48.296;16.416;2022-11-02T16:09:49;18.23;;;11.40;;
75926;SDS011;64605;48.296;16.416;2022-11-02T16:12:16;20.85;;;17.15;;
75926;SDS011;64605;48.296;16.416;2022-11-02T16:14:43;23.45;;;20.45;;
75926;SDS011;64605;48.296;16.416;2022-11-02T16:17:22;19.98;;;14.32;;
75926;SDS011;64605;48.296;16.416;2022-11-02T16:20:04;14.70;;;9.25;;
75926;SDS011;64605;48.296;16.416;2022-11-02T16:22:39;14.95;;;8.15;;
75926;SDS011;64605;48.296;16.416;2022-11-02T16:25:20;14.68;;;11.98;;
75926;SDS011;64605;48.296;16.416;2022-11-02T16:28:01;12.68;;;9.82;;
75926;SDS011;64605;48.296;16.416;2022-11-02T16:30:56;13.68;;;11.90;;
75926;SDS011;64605;48.296;16.416;2022-11-02T16:33:25;20.08;;;16.77;;
75926;SDS011;64605;48.296;16.416;2022-11-02T16:35:54;10.52;;;6.75;;
75926;SDS011;64605;48.296;16.416;2022-11-02T16:38:21;14.27;;;10.10;;
75926;SDS011;64605;48.296;16.416;2022-11-02T16:40:47;15.48;;;9.10;;
75926;SDS011;64605;48.296;16.416;2022-11-02T16:43:13;11.70;;;10.07;;
75926;SDS011;64605;48.296;16.416;2022-11-02T16:45:40;16.27;;;13.77;;
75926;SDS011;64605;48.296;16.416;2022-11-02T16:51:04;12.85;;;10.55;;
75926;SDS011;64605;48.296;16.416;2022-11-02T16:53:41;36.08;;;23.90;;
75926;SDS011;64605;48.296;16.416;2022-11-02T16:56:26;13.57;;;6.65;;
75926;SDS011;64605;48.296;16.416;2022-11-02T16:59:02;16.25;;;8.25;;
75926;SDS011;64605;48.296;16.416;2022-11-02T17:01:38;14.25;;;6.10;;
75926;SDS011;64605;48.296;16.416;2022-11-02T17:04:26;11.10;;;6.63;;
75926;SDS011;64605;48.296;16.416;2022-11-02T17:06:54;16.98;;;11.40;;
75926;SDS011;64605;48.296;16.416;2022-11-02T17:09:37;12.18;;;9.02;;
75926;SDS011;64605;48.296;16.416;2022-11-02T17:12:14;8.68;;;6.00;;
75926;SDS011;64605;48.296;16.416;2022-11-02T17:14:42;9.25;;;5.30;;
75926;SDS011;64605;48.296;16.416;2022-11-02T17:19:54;14.60;;;7.80;;
75926;SDS011;64605;48.296;16.416;2022-11-02T17:22:37;16.58;;;13.50;;
75926;SDS011;64605;48.296;16.416;2022-11-02T17:27:43;13.40;;;12.10;;
75926;SDS011;64605;48.296;16.416;2022-11-02T17:35:46;10.45;;;5.85;;